KCDD

Scotts Seaplane Base

Crane Lake, Minnesota, USA
METAR KCDD 190355Z AUTO 00000KT 10SM CLR 05/04 A3008 RMK AO2
Observed Flight Rules
Sep-19 @ 03:55 UTC (an hour ago) Visual Flight Rules
Visibility Clouds
10 miles
  • Clear skies
Temperatures Readings
Current 5°C / 41°F
Dewpoint 4°C / 39°F
Humidity 93%
Altimeter 30.08" Hg
Pressure 1019 hPa
Elevation 341
METAR KCDD 190355Z AUTO 00000KT 10SM CLR 05/04 A3008 RMK AO2
Observed Flight Rules
Sep-19 @ 03:55 UTC
(an hour ago)
VFR
Clouds
  • Clear skies
Temperature Dewpoint
5°C / 41°F 4°C / 39°F
Humidity Altimeter Pressure
93% 30.08" Hg 1019 hPa